sensor_id;sensor_type;location;lat;lon;timestamp;P1;durP1;ratioP1;P2;durP2;ratioP2
34102;SDS011;20381;54.498;18.206;2023-04-22T00:00:10;14.78;;;8.70;;
34102;SDS011;20381;54.498;18.206;2023-04-22T00:02:39;13.68;;;8.18;;
34102;SDS011;20381;54.498;18.206;2023-04-22T00:05:05;15.80;;;7.60;;
34102;SDS011;20381;54.498;18.206;2023-04-22T00:07:32;11.30;;;7.08;;
34102;SDS011;20381;54.498;18.206;2023-04-22T00:09:59;9.60;;;6.75;;
34102;SDS011;20381;54.498;18.206;2023-04-22T00:12:25;9.95;;;7.33;;
34102;SDS011;20381;54.498;18.206;2023-04-22T00:14:52;16.67;;;8.35;;
34102;SDS011;20381;54.498;18.206;2023-04-22T00:17:18;15.20;;;8.43;;
34102;SDS011;20381;54.498;18.206;2023-04-22T00:19:44;12.93;;;7.95;;
34102;SDS011;20381;54.498;18.206;2023-04-22T00:22:10;19.57;;;8.95;;
34102;SDS011;20381;54.498;18.206;2023-04-22T00:24:36;15.80;;;8.05;;
34102;SDS011;20381;54.498;18.206;2023-04-22T00:27:02;12.58;;;8.05;;
34102;SDS011;20381;54.498;18.206;2023-04-22T00:29:29;12.47;;;7.30;;
34102;SDS011;20381;54.498;18.206;2023-04-22T00:31:55;14.87;;;7.83;;
34102;SDS011;20381;54.498;18.206;2023-04-22T00:34:21;19.60;;;8.33;;
34102;SDS011;20381;54.498;18.206;2023-04-22T00:36:47;15.15;;;8.38;;
34102;SDS011;20381;54.498;18.206;2023-04-22T00:39:14;15.70;;;8.53;;
34102;SDS011;20381;54.498;18.206;2023-04-22T00:41:40;15.85;;;8.78;;
34102;SDS011;20381;54.498;18.206;2023-04-22T00:44:11;11.73;;;7.70;;
34102;SDS011;20381;54.498;18.206;2023-04-22T00:46:40;15.58;;;8.93;;
34102;SDS011;20381;54.498;18.206;2023-04-22T00:49:04;13.65;;;7.20;;
34102;SDS011;20381;54.498;18.206;2023-04-22T00:51:32;11.30;;;6.92;;
34102;SDS011;20381;54.498;18.206;2023-04-22T00:53:58;16.85;;;7.78;;
34102;SDS011;20381;54.498;18.206;2023-04-22T00:56:29;12.68;;;7.50;;
34102;SDS011;20381;54.498;18.206;2023-04-22T00:58:56;18.80;;;7.87;;
34102;SDS011;20381;54.498;18.206;2023-04-22T01:01:23;15.18;;;8.08;;
34102;SDS011;20381;54.498;18.206;2023-04-22T01:03:50;15.80;;;8.28;;
34102;SDS011;20381;54.498;18.206;2023-04-22T01:06:20;15.23;;;8.20;;
34102;SDS011;20381;54.498;18.206;2023-04-22T01:08:48;12.03;;;8.20;;
34102;SDS011;20381;54.498;18.206;2023-04-22T01:11:15;14.18;;;8.05;;
34102;SDS011;20381;54.498;18.206;2023-04-22T01:13:41;12.13;;;7.45;;
34102;SDS011;20381;54.498;18.206;2023-04-22T01:16:08;13.40;;;7.83;;
34102;SDS011;20381;54.498;18.206;2023-04-22T01:18:35;13.98;;;8.73;;
34102;SDS011;20381;54.498;18.206;2023-04-22T01:21:02;14.60;;;7.83;;
34102;SDS011;20381;54.498;18.206;2023-04-22T01:23:28;11.75;;;6.90;;
34102;SDS011;20381;54.498;18.206;2023-04-22T01:25:55;12.37;;;7.57;;
34102;SDS011;20381;54.498;18.206;2023-04-22T01:28:22;12.23;;;7.05;;
34102;SDS011;20381;54.498;18.206;2023-04-22T01:30:49;16.05;;;6.97;;
34102;SDS011;20381;54.498;18.206;2023-04-22T01:33:15;11.68;;;6.75;;
34102;SDS011;20381;54.498;18.206;2023-04-22T01:35:41;11.03;;;7.08;;
34102;SDS011;20381;54.498;18.206;2023-04-22T01:38:10;14.23;;;6.87;;
34102;SDS011;20381;54.498;18.206;2023-04-22T01:40:37;15.25;;;8.58;;
34102;SDS011;20381;54.498;18.206;2023-04-22T01:43:04;12.43;;;8.10;;
34102;SDS011;20381;54.498;18.206;2023-04-22T01:45:31;13.30;;;6.67;;
34102;SDS011;20381;54.498;18.206;2023-04-22T01:47:57;10.18;;;6.00;;
34102;SDS011;20381;54.498;18.206;2023-04-22T01:50:23;9.08;;;7.00;;
34102;SDS011;20381;54.498;18.206;2023-04-22T01:52:50;11.97;;;7.20;;
34102;SDS011;20381;54.498;18.206;2023-04-22T01:55:16;10.13;;;6.85;;
34102;SDS011;20381;54.498;18.206;2023-04-22T01:57:43;13.95;;;7.62;;
34102;SDS011;20381;54.498;18.206;2023-04-22T02:00:09;14.95;;;8.30;;
34102;SDS011;20381;54.498;18.206;2023-04-22T02:02:36;13.45;;;8.65;;
34102;SDS011;20381;54.498;18.206;2023-04-22T02:05:03;16.45;;;9.35;;
34102;SDS011;20381;54.498;18.206;2023-04-22T02:07:31;13.38;;;8.50;;
34102;SDS011;20381;54.498;18.206;2023-04-22T02:09:58;12.23;;;7.95;;
34102;SDS011;20381;54.498;18.206;2023-04-22T02:12:24;12.80;;;7.70;;
34102;SDS011;20381;54.498;18.206;2023-04-22T02:14:51;9.85;;;6.08;;
34102;SDS011;20381;54.498;18.206;2023-04-22T02:17:17;8.60;;;5.33;;
34102;SDS011;20381;54.498;18.206;2023-04-22T02:19:43;7.72;;;5.50;;
34102;SDS011;20381;54.498;18.206;2023-04-22T02:22:09;11.30;;;6.33;;
34102;SDS011;20381;54.498;18.206;2023-04-22T02:24:36;12.35;;;6.92;;
34102;SDS011;20381;54.498;18.206;2023-04-22T02:27:02;9.23;;;5.72;;
34102;SDS011;20381;54.498;18.206;2023-04-22T02:29:28;9.53;;;5.80;;
34102;SDS011;20381;54.498;18.206;2023-04-22T02:31:57;13.32;;;5.90;;
34102;SDS011;20381;54.498;18.206;2023-04-22T02:34:24;8.48;;;5.85;;
34102;SDS011;20381;54.498;18.206;2023-04-22T02:36:50;10.15;;;6.05;;
34102;SDS011;20381;54.498;18.206;2023-04-22T02:39:17;13.20;;;6.20;;
34102;SDS011;20381;54.498;18.206;2023-04-22T02:41:43;13.68;;;7.22;;
34102;SDS011;20381;54.498;18.206;2023-04-22T02:44:09;12.15;;;7.00;;
34102;SDS011;20381;54.498;18.206;2023-04-22T02:46:36;9.15;;;5.95;;
34102;SDS011;20381;54.498;18.206;2023-04-22T02:49:02;7.80;;;5.05;;
34102;SDS011;20381;54.498;18.206;2023-04-22T02:51:29;10.15;;;4.70;;
34102;SDS011;20381;54.498;18.206;2023-04-22T02:53:57;10.72;;;6.92;;
34102;SDS011;20381;54.498;18.206;2023-04-22T02:56:24;12.10;;;6.95;;
34102;SDS011;20381;54.498;18.206;2023-04-22T02:58:51;13.62;;;7.95;;
34102;SDS011;20381;54.498;18.206;2023-04-22T03:01:18;14.78;;;7.83;;
34102;SDS011;20381;54.498;18.206;2023-04-22T03:03:44;13.30;;;7.67;;
34102;SDS011;20381;54.498;18.206;2023-04-22T03:06:10;10.48;;;7.12;;
34102;SDS011;20381;54.498;18.206;2023-04-22T03:08:36;11.45;;;7.20;;
34102;SDS011;20381;54.498;18.206;2023-04-22T03:11:03;11.00;;;7.10;;
34102;SDS011;20381;54.498;18.206;2023-04-22T03:13:29;14.43;;;7.58;;
34102;SDS011;20381;54.498;18.206;2023-04-22T03:15:56;12.88;;;8.25;;
34102;SDS011;20381;54.498;18.206;2023-04-22T03:18:22;18.10;;;7.80;;
34102;SDS011;20381;54.498;18.206;2023-04-22T03:20:49;16.95;;;9.68;;
34102;SDS011;20381;54.498;18.206;2023-04-22T03:23:15;14.33;;;8.13;;
34102;SDS011;20381;54.498;18.206;2023-04-22T03:25:41;11.28;;;8.23;;
34102;SDS011;20381;54.498;18.206;2023-04-22T03:28:07;16.70;;;8.48;;
34102;SDS011;20381;54.498;18.206;2023-04-22T03:30:34;16.52;;;8.63;;
34102;SDS011;20381;54.498;18.206;2023-04-22T03:33:00;15.83;;;10.05;;
34102;SDS011;20381;54.498;18.206;2023-04-22T03:35:26;15.45;;;9.10;;
34102;SDS011;20381;54.498;18.206;2023-04-22T03:37:53;12.58;;;8.25;;
34102;SDS011;20381;54.498;18.206;2023-04-22T03:40:19;13.03;;;7.97;;
34102;SDS011;20381;54.498;18.206;2023-04-22T03:42:45;13.28;;;9.25;;
34102;SDS011;20381;54.498;18.206;2023-04-22T03:45:11;15.65;;;8.68;;
34102;SDS011;20381;54.498;18.206;2023-04-22T03:47:38;19.92;;;9.20;;
34102;SDS011;20381;54.498;18.206;2023-04-22T03:50:04;43.80;;;11.18;;
34102;SDS011;20381;54.498;18.206;2023-04-22T03:52:31;36.73;;;9.35;;
34102;SDS011;20381;54.498;18.206;2023-04-22T03:54:57;21.95;;;9.60;;
34102;SDS011;20381;54.498;18.206;2023-04-22T03:57:23;17.30;;;9.33;;
34102;SDS011;20381;54.498;18.206;2023-04-22T03:59:49;17.57;;;9.08;;
34102;SDS011;20381;54.498;18.206;2023-04-22T04:02:18;18.82;;;8.70;;
34102;SDS011;20381;54.498;18.206;2023-04-22T04:04:44;24.00;;;9.88;;
34102;SDS011;20381;54.498;18.206;2023-04-22T04:07:10;15.68;;;9.55;;
34102;SDS011;20381;54.498;18.206;2023-04-22T04:09:36;13.18;;;9.13;;
34102;SDS011;20381;54.498;18.206;2023-04-22T04:12:05;19.55;;;9.45;;
34102;SDS011;20381;54.498;18.206;2023-04-22T04:14:32;15.65;;;9.40;;
34102;SDS011;20381;54.498;18.206;2023-04-22T04:16:59;16.40;;;9.15;;
34102;SDS011;20381;54.498;18.206;2023-04-22T04:19:25;14.40;;;7.95;;
34102;SDS011;20381;54.498;18.206;2023-04-22T04:21:51;15.70;;;8.03;;
34102;SDS011;20381;54.498;18.206;2023-04-22T04:24:17;14.18;;;8.05;;
34102;SDS011;20381;54.498;18.206;2023-04-22T04:26:43;14.05;;;7.45;;
34102;SDS011;20381;54.498;18.206;2023-04-22T04:29:10;13.20;;;7.33;;
34102;SDS011;20381;54.498;18.206;2023-04-22T04:31:39;76.47;;;11.28;;
34102;SDS011;20381;54.498;18.206;2023-04-22T04:34:06;77.70;;;14.13;;
34102;SDS011;20381;54.498;18.206;2023-04-22T04:36:32;70.45;;;13.93;;
34102;SDS011;20381;54.498;18.206;2023-04-22T04:38:58;24.32;;;8.83;;
34102;SDS011;20381;54.498;18.206;2023-04-22T04:41:24;14.55;;;7.90;;
34102;SDS011;20381;54.498;18.206;2023-04-22T04:43:52;20.00;;;9.10;;
34102;SDS011;20381;54.498;18.206;2023-04-22T04:46:19;22.98;;;9.18;;
34102;SDS011;20381;54.498;18.206;2023-04-22T04:48:45;23.02;;;10.88;;
34102;SDS011;20381;54.498;18.206;2023-04-22T04:51:13;27.30;;;14.35;;
34102;SDS011;20381;54.498;18.206;2023-04-22T04:53:39;41.50;;;17.82;;
34102;SDS011;20381;54.498;18.206;2023-04-22T04:56:05;64.00;;;15.30;;
34102;SDS011;20381;54.498;18.206;2023-04-22T04:58:32;22.00;;;12.28;;
34102;SDS011;20381;54.498;18.206;2023-04-22T05:00:58;19.00;;;10.85;;
34102;SDS011;20381;54.498;18.206;2023-04-22T05:03:24;17.80;;;10.65;;
34102;SDS011;20381;54.498;18.206;2023-04-22T05:05:51;17.07;;;9.55;;
34102;SDS011;20381;54.498;18.206;2023-04-22T05:08:17;19.92;;;8.48;;
34102;SDS011;20381;54.498;18.206;2023-04-22T05:10:43;32.60;;;9.33;;
34102;SDS011;20381;54.498;18.206;2023-04-22T05:13:11;12.98;;;6.67;;
34102;SDS011;20381;54.498;18.206;2023-04-22T05:15:38;7.78;;;5.80;;
34102;SDS011;20381;54.498;18.206;2023-04-22T05:18:04;8.75;;;5.62;;
34102;SDS011;20381;54.498;18.206;2023-04-22T05:20:31;8.68;;;5.90;;
34102;SDS011;20381;54.498;18.206;2023-04-22T05:22:57;10.32;;;5.90;;
34102;SDS011;20381;54.498;18.206;2023-04-22T05:25:23;49.48;;;8.63;;
34102;SDS011;20381;54.498;18.206;2023-04-22T05:27:49;45.05;;;8.85;;
34102;SDS011;20381;54.498;18.206;2023-04-22T05:30:16;20.27;;;7.30;;
34102;SDS011;20381;54.498;18.206;2023-04-22T05:32:42;10.53;;;6.08;;
34102;SDS011;20381;54.498;18.206;2023-04-22T05:35:09;9.55;;;5.17;;
34102;SDS011;20381;54.498;18.206;2023-04-22T05:37:35;8.80;;;5.55;;
34102;SDS011;20381;54.498;18.206;2023-04-22T05:40:02;7.83;;;5.50;;
34102;SDS011;20381;54.498;18.206;2023-04-22T05:42:28;8.50;;;5.85;;
34102;SDS011;20381;54.498;18.206;2023-04-22T05:44:54;8.78;;;5.50;;
34102;SDS011;20381;54.498;18.206;2023-04-22T05:47:20;10.23;;;6.75;;
34102;SDS011;20381;54.498;18.206;2023-04-22T05:49:47;7.87;;;5.83;;
34102;SDS011;20381;54.498;18.206;2023-04-22T05:52:13;8.38;;;5.35;;
34102;SDS011;20381;54.498;18.206;2023-04-22T05:54:41;6.80;;;4.62;;
34102;SDS011;20381;54.498;18.206;2023-04-22T05:57:07;9.75;;;3.87;;
34102;SDS011;20381;54.498;18.206;2023-04-22T05:59:33;3.72;;;2.85;;
34102;SDS011;20381;54.498;18.206;2023-04-22T06:02:00;5.92;;;3.80;;
34102;SDS011;20381;54.498;18.206;2023-04-22T06:04:26;4.53;;;3.12;;
34102;SDS011;20381;54.498;18.206;2023-04-22T06:07:01;4.62;;;3.08;;
34102;SDS011;20381;54.498;18.206;2023-04-22T06:09:27;4.60;;;2.87;;
34102;SDS011;20381;54.498;18.206;2023-04-22T06:11:53;5.50;;;2.87;;
34102;SDS011;20381;54.498;18.206;2023-04-22T06:14:24;6.78;;;2.60;;
34102;SDS011;20381;54.498;18.206;2023-04-22T06:16:50;7.25;;;2.60;;
34102;SDS011;20381;54.498;18.206;2023-04-22T06:19:19;7.72;;;2.50;;
34102;SDS011;20381;54.498;18.206;2023-04-22T06:21:45;5.78;;;2.90;;
34102;SDS011;20381;54.498;18.206;2023-04-22T06:24:15;3.25;;;1.90;;
34102;SDS011;20381;54.498;18.206;2023-04-22T06:26:44;3.47;;;1.92;;
34102;SDS011;20381;54.498;18.206;2023-04-22T06:29:10;4.97;;;1.67;;
34102;SDS011;20381;54.498;18.206;2023-04-22T06:31:37;2.95;;;1.70;;
34102;SDS011;20381;54.498;18.206;2023-04-22T06:34:03;2.45;;;1.60;;
34102;SDS011;20381;54.498;18.206;2023-04-22T06:36:30;1.35;;;0.78;;
34102;SDS011;20381;54.498;18.206;2023-04-22T06:38:58;2.25;;;0.90;;
34102;SDS011;20381;54.498;18.206;2023-04-22T06:41:25;2.58;;;1.52;;
34102;SDS011;20381;54.498;18.206;2023-04-22T06:43:54;2.33;;;1.70;;
34102;SDS011;20381;54.498;18.206;2023-04-22T06:46:23;1.72;;;1.40;;
34102;SDS011;20381;54.498;18.206;2023-04-22T06:48:50;3.10;;;1.30;;
34102;SDS011;20381;54.498;18.206;2023-04-22T06:51:16;2.17;;;0.75;;
34102;SDS011;20381;54.498;18.206;2023-04-22T06:53:42;5.78;;;1.00;;
34102;SDS011;20381;54.498;18.206;2023-04-22T06:56:12;1.25;;;0.90;;
34102;SDS011;20381;54.498;18.206;2023-04-22T06:58:40;0.93;;;0.60;;
34102;SDS011;20381;54.498;18.206;2023-04-22T07:01:06;1.67;;;0.72;;
34102;SDS011;20381;54.498;18.206;2023-04-22T07:03:32;2.47;;;0.80;;
34102;SDS011;20381;54.498;18.206;2023-04-22T07:05:59;1.10;;;0.75;;
34102;SDS011;20381;54.498;18.206;2023-04-22T07:08:25;3.17;;;0.60;;
34102;SDS011;20381;54.498;18.206;2023-04-22T07:10:51;3.07;;;0.50;;
34102;SDS011;20381;54.498;18.206;2023-04-22T07:13:17;4.47;;;0.80;;
34102;SDS011;20381;54.498;18.206;2023-04-22T07:15:44;3.62;;;0.80;;
34102;SDS011;20381;54.498;18.206;2023-04-22T07:18:10;0.80;;;0.50;;
34102;SDS011;20381;54.498;18.206;2023-04-22T07:20:37;1.47;;;0.50;;
34102;SDS011;20381;54.498;18.206;2023-04-22T07:23:03;0.80;;;0.53;;
34102;SDS011;20381;54.498;18.206;2023-04-22T07:25:29;2.33;;;0.60;;
34102;SDS011;20381;54.498;18.206;2023-04-22T07:27:55;2.47;;;0.70;;
34102;SDS011;20381;54.498;18.206;2023-04-22T07:30:22;1.98;;;0.60;;
34102;SDS011;20381;54.498;18.206;2023-04-22T07:32:49;1.25;;;0.68;;
34102;SDS011;20381;54.498;18.206;2023-04-22T07:35:16;1.00;;;0.55;;
34102;SDS011;20381;54.498;18.206;2023-04-22T07:37:42;6.50;;;0.98;;
34102;SDS011;20381;54.498;18.206;2023-04-22T07:40:09;2.22;;;0.65;;
34102;SDS011;20381;54.498;18.206;2023-04-22T07:42:38;2.17;;;0.82;;
34102;SDS011;20381;54.498;18.206;2023-04-22T07:45:08;1.90;;;0.93;;
34102;SDS011;20381;54.498;18.206;2023-04-22T07:47:36;2.17;;;1.00;;
34102;SDS011;20381;54.498;18.206;2023-04-22T07:50:02;1.67;;;0.93;;
34102;SDS011;20381;54.498;18.206;2023-04-22T07:54:55;2.60;;;1.07;;
34102;SDS011;20381;54.498;18.206;2023-04-22T07:57:21;2.87;;;1.30;;
34102;SDS011;20381;54.498;18.206;2023-04-22T07:59:48;3.00;;;1.50;;
34102;SDS011;20381;54.498;18.206;2023-04-22T08:02:16;2.90;;;1.25;;
34102;SDS011;20381;54.498;18.206;2023-04-22T08:04:42;4.92;;;1.20;;
34102;SDS011;20381;54.498;18.206;2023-04-22T08:07:09;2.17;;;1.10;;
34102;SDS011;20381;54.498;18.206;2023-04-22T08:09:35;3.12;;;1.70;;
34102;SDS011;20381;54.498;18.206;2023-04-22T08:12:01;6.97;;;1.17;;
34102;SDS011;20381;54.498;18.206;2023-04-22T08:14:28;4.00;;;1.02;;
34102;SDS011;20381;54.498;18.206;2023-04-22T08:16:54;2.37;;;1.22;;
34102;SDS011;20381;54.498;18.206;2023-04-22T08:19:21;2.10;;;1.17;;
34102;SDS011;20381;54.498;18.206;2023-04-22T08:21:47;2.30;;;1.17;;
34102;SDS011;20381;54.498;18.206;2023-04-22T08:24:13;1.47;;;1.17;;
34102;SDS011;20381;54.498;18.206;2023-04-22T08:26:43;4.05;;;1.40;;
34102;SDS011;20381;54.498;18.206;2023-04-22T08:29:07;3.75;;;1.35;;
34102;SDS011;20381;54.498;18.206;2023-04-22T08:31:34;2.50;;;1.60;;
34102;SDS011;20381;54.498;18.206;2023-04-22T08:34:00;2.12;;;1.45;;
34102;SDS011;20381;54.498;18.206;2023-04-22T08:36:27;2.20;;;0.90;;
34102;SDS011;20381;54.498;18.206;2023-04-22T08:38:54;3.15;;;1.42;;
34102;SDS011;20381;54.498;18.206;2023-04-22T08:41:21;3.08;;;1.20;;
34102;SDS011;20381;54.498;18.206;2023-04-22T08:43:53;9.88;;;1.52;;
34102;SDS011;20381;54.498;18.206;2023-04-22T08:46:22;1.77;;;0.90;;
34102;SDS011;20381;54.498;18.206;2023-04-22T08:48:49;1.12;;;0.88;;
34102;SDS011;20381;54.498;18.206;2023-04-22T08:51:16;2.92;;;1.20;;
34102;SDS011;20381;54.498;18.206;2023-04-22T08:53:43;3.45;;;1.00;;
34102;SDS011;20381;54.498;18.206;2023-04-22T08:56:14;2.33;;;0.80;;
34102;SDS011;20381;54.498;18.206;2023-04-22T08:58:41;3.47;;;0.70;;
34102;SDS011;20381;54.498;18.206;2023-04-22T09:01:07;1.10;;;0.68;;
34102;SDS011;20381;54.498;18.206;2023-04-22T09:03:34;11.53;;;1.45;;
34102;SDS011;20381;54.498;18.206;2023-04-22T09:06:03;1.12;;;0.57;;
34102;SDS011;20381;54.498;18.206;2023-04-22T09:08:31;2.87;;;0.80;;
34102;SDS011;20381;54.498;18.206;2023-04-22T09:10:58;2.37;;;0.40;;
34102;SDS011;20381;54.498;18.206;2023-04-22T09:13:28;5.75;;;0.70;;
34102;SDS011;20381;54.498;18.206;2023-04-22T09:15:54;2.52;;;0.70;;
34102;SDS011;20381;54.498;18.206;2023-04-22T09:18:20;0.70;;;0.40;;
34102;SDS011;20381;54.498;18.206;2023-04-22T09:20:47;0.50;;;0.50;;
34102;SDS011;20381;54.498;18.206;2023-04-22T09:23:14;2.87;;;0.70;;
34102;SDS011;20381;54.498;18.206;2023-04-22T09:25:40;1.85;;;0.70;;
34102;SDS011;20381;54.498;18.206;2023-04-22T09:28:10;2.42;;;0.80;;
34102;SDS011;20381;54.498;18.206;2023-04-22T09:30:38;35.17;;;2.70;;
34102;SDS011;20381;54.498;18.206;2023-04-22T09:33:04;1.42;;;0.70;;
34102;SDS011;20381;54.498;18.206;2023-04-22T09:35:33;1.32;;;1.00;;
34102;SDS011;20381;54.498;18.206;2023-04-22T09:38:02;2.45;;;0.93;;
34102;SDS011;20381;54.498;18.206;2023-04-22T09:40:33;3.77;;;0.90;;
34102;SDS011;20381;54.498;18.206;2023-04-22T09:43:01;0.93;;;0.82;;
34102;SDS011;20381;54.498;18.206;2023-04-22T09:45:34;1.27;;;0.90;;
34102;SDS011;20381;54.498;18.206;2023-04-22T09:48:05;2.80;;;0.80;;
34102;SDS011;20381;54.498;18.206;2023-04-22T09:50:34;2.45;;;1.00;;
34102;SDS011;20381;54.498;18.206;2023-04-22T09:53:04;6.40;;;1.35;;
34102;SDS011;20381;54.498;18.206;2023-04-22T09:55:32;1.27;;;0.80;;
34102;SDS011;20381;54.498;18.206;2023-04-22T09:58:08;2.47;;;1.35;;
34102;SDS011;20381;54.498;18.206;2023-04-22T10:00:38;3.40;;;1.10;;
34102;SDS011;20381;54.498;18.206;2023-04-22T10:03:06;2.02;;;1.32;;
34102;SDS011;20381;54.498;18.206;2023-04-22T10:05:33;2.20;;;1.17;;
34102;SDS011;20381;54.498;18.206;2023-04-22T10:08:03;2.75;;;1.40;;
34102;SDS011;20381;54.498;18.206;2023-04-22T10:10:30;3.35;;;1.90;;
34102;SDS011;20381;54.498;18.206;2023-04-22T10:12:57;2.75;;;2.20;;
34102;SDS011;20381;54.498;18.206;2023-04-22T10:15:24;4.87;;;1.82;;
34102;SDS011;20381;54.498;18.206;2023-04-22T10:17:52;5.85;;;1.92;;
34102;SDS011;20381;54.498;18.206;2023-04-22T10:20:20;10.25;;;8.63;;
34102;SDS011;20381;54.498;18.206;2023-04-22T10:22:48;4.62;;;1.98;;
34102;SDS011;20381;54.498;18.206;2023-04-22T10:25:22;2.05;;;1.50;;
34102;SDS011;20381;54.498;18.206;2023-04-22T10:27:54;5.62;;;1.27;;
34102;SDS011;20381;54.498;18.206;2023-04-22T10:30:32;5.17;;;1.20;;
34102;SDS011;20381;54.498;18.206;2023-04-22T10:36:07;2.67;;;1.35;;
34102;SDS011;20381;54.498;18.206;2023-04-22T10:41:31;1.67;;;1.20;;
34102;SDS011;20381;54.498;18.206;2023-04-22T10:43:59;4.08;;;3.20;;
34102;SDS011;20381;54.498;18.206;2023-04-22T10:49:08;3.27;;;0.80;;
34102;SDS011;20381;54.498;18.206;2023-04-22T10:51:43;1.80;;;1.02;;
34102;SDS011;20381;54.498;18.206;2023-04-22T10:54:54;4.28;;;0.98;;
34102;SDS011;20381;54.498;18.206;2023-04-22T10:59:44;2.95;;;0.90;;
34102;SDS011;20381;54.498;18.206;2023-04-22T11:02:20;1.20;;;1.10;;
34102;SDS011;20381;54.498;18.206;2023-04-22T11:04:47;11.93;;;10.55;;
34102;SDS011;20381;54.498;18.206;2023-04-22T11:09:50;3.45;;;1.20;;
34102;SDS011;20381;54.498;18.206;2023-04-22T11:17:39;21.30;;;1.65;;
34102;SDS011;20381;54.498;18.206;2023-04-22T11:20:11;4.12;;;1.30;;
34102;SDS011;20381;54.498;18.206;2023-04-22T11:22:41;2.90;;;1.07;;
34102;SDS011;20381;54.498;18.206;2023-04-22T11:25:09;2.15;;;1.02;;
34102;SDS011;20381;54.498;18.206;2023-04-22T11:27:36;3.20;;;1.37;;
34102;SDS011;20381;54.498;18.206;2023-04-22T11:30:09;2.62;;;0.95;;
34102;SDS011;20381;54.498;18.206;2023-04-22T11:32:34;12.45;;;8.13;;
34102;SDS011;20381;54.498;18.206;2023-04-22T11:35:06;6.80;;;3.33;;
34102;SDS011;20381;54.498;18.206;2023-04-22T11:40:10;4.22;;;1.00;;
34102;SDS011;20381;54.498;18.206;2023-04-22T11:42:38;3.47;;;0.80;;
34102;SDS011;20381;54.498;18.206;2023-04-22T11:45:05;2.50;;;1.27;;
34102;SDS011;20381;54.498;18.206;2023-04-22T11:47:33;2.02;;;0.95;;
34102;SDS011;20381;54.498;18.206;2023-04-22T11:50:01;3.67;;;1.27;;
34102;SDS011;20381;54.498;18.206;2023-04-22T11:52:48;3.80;;;1.62;;
34102;SDS011;20381;54.498;18.206;2023-04-22T11:57:55;3.22;;;0.85;;
34102;SDS011;20381;54.498;18.206;2023-04-22T12:00:30;6.22;;;1.12;;
34102;SDS011;20381;54.498;18.206;2023-04-22T12:05:35;5.92;;;1.32;;
34102;SDS011;20381;54.498;18.206;2023-04-22T12:08:04;4.58;;;0.72;;
34102;SDS011;20381;54.498;18.206;2023-04-22T12:10:32;2.87;;;0.80;;
34102;SDS011;20381;54.498;18.206;2023-04-22T12:13:00;5.05;;;1.07;;
34102;SDS011;20381;54.498;18.206;2023-04-22T12:15:35;3.52;;;1.20;;
34102;SDS011;20381;54.498;18.206;2023-04-22T12:18:05;65.95;;;4.90;;
34102;SDS011;20381;54.498;18.206;2023-04-22T12:20:33;6.15;;;2.67;;
34102;SDS011;20381;54.498;18.206;2023-04-22T12:23:02;1.72;;;0.70;;
34102;SDS011;20381;54.498;18.206;2023-04-22T12:25:29;7.90;;;0.90;;
34102;SDS011;20381;54.498;18.206;2023-04-22T12:27:57;1.17;;;0.70;;
34102;SDS011;20381;54.498;18.206;2023-04-22T12:30:25;9.23;;;1.02;;
34102;SDS011;20381;54.498;18.206;2023-04-22T12:32:51;4.42;;;0.95;;
34102;SDS011;20381;54.498;18.206;2023-04-22T12:35:17;3.37;;;1.07;;
34102;SDS011;20381;54.498;18.206;2023-04-22T12:37:44;1.27;;;0.70;;
34102;SDS011;20381;54.498;18.206;2023-04-22T12:40:15;5.15;;;1.15;;
34102;SDS011;20381;54.498;18.206;2023-04-22T12:42:39;2.33;;;0.90;;
34102;SDS011;20381;54.498;18.206;2023-04-22T12:45:06;2.02;;;1.00;;
34102;SDS011;20381;54.498;18.206;2023-04-22T12:47:36;3.52;;;1.00;;
34102;SDS011;20381;54.498;18.206;2023-04-22T12:50:03;5.08;;;1.17;;
34102;SDS011;20381;54.498;18.206;2023-04-22T12:52:32;1.72;;;0.95;;
34102;SDS011;20381;54.498;18.206;2023-04-22T12:54:59;3.52;;;1.20;;
34102;SDS011;20381;54.498;18.206;2023-04-22T12:57:25;0.85;;;0.70;;
34102;SDS011;20381;54.498;18.206;2023-04-22T12:59:56;1.20;;;0.70;;
34102;SDS011;20381;54.498;18.206;2023-04-22T13:02:20;2.00;;;0.85;;
34102;SDS011;20381;54.498;18.206;2023-04-22T13:04:46;1.80;;;1.00;;
34102;SDS011;20381;54.498;18.206;2023-04-22T13:07:12;12.18;;;1.37;;
34102;SDS011;20381;54.498;18.206;2023-04-22T13:09:38;1.72;;;0.70;;
34102;SDS011;20381;54.498;18.206;2023-04-22T13:12:06;2.42;;;1.10;;
34102;SDS011;20381;54.498;18.206;2023-04-22T13:14:33;3.90;;;1.07;;
34102;SDS011;20381;54.498;18.206;2023-04-22T13:17:00;4.28;;;1.30;;
34102;SDS011;20381;54.498;18.206;2023-04-22T13:19:26;2.10;;;1.07;;
34102;SDS011;20381;54.498;18.206;2023-04-22T13:21:54;1.92;;;1.15;;
34102;SDS011;20381;54.498;18.206;2023-04-22T13:24:20;3.22;;;1.17;;
34102;SDS011;20381;54.498;18.206;2023-04-22T13:26:46;2.45;;;1.10;;
34102;SDS011;20381;54.498;18.206;2023-04-22T13:29:13;5.70;;;1.15;;
34102;SDS011;20381;54.498;18.206;2023-04-22T13:31:41;2.40;;;1.45;;
34102;SDS011;20381;54.498;18.206;2023-04-22T13:34:11;4.70;;;1.20;;
34102;SDS011;20381;54.498;18.206;2023-04-22T13:36:37;1.30;;;0.85;;
34102;SDS011;20381;54.498;18.206;2023-04-22T13:39:07;2.08;;;0.80;;
34102;SDS011;20381;54.498;18.206;2023-04-22T13:41:37;2.83;;;1.20;;
34102;SDS011;20381;54.498;18.206;2023-04-22T13:44:09;1.00;;;0.70;;
34102;SDS011;20381;54.498;18.206;2023-04-22T13:46:32;5.05;;;1.12;;
34102;SDS011;20381;54.498;18.206;2023-04-22T13:48:58;4.53;;;0.88;;
34102;SDS011;20381;54.498;18.206;2023-04-22T13:51:26;3.30;;;1.10;;
34102;SDS011;20381;54.498;18.206;2023-04-22T13:53:55;1.55;;;1.17;;
34102;SDS011;20381;54.498;18.206;2023-04-22T13:56:22;3.20;;;1.32;;
34102;SDS011;20381;54.498;18.206;2023-04-22T13:58:49;1.40;;;0.95;;
34102;SDS011;20381;54.498;18.206;2023-04-22T14:01:16;2.37;;;0.90;;
34102;SDS011;20381;54.498;18.206;2023-04-22T14:03:43;1.37;;;0.77;;
34102;SDS011;20381;54.498;18.206;2023-04-22T14:06:11;2.05;;;0.70;;
34102;SDS011;20381;54.498;18.206;2023-04-22T14:08:37;2.92;;;1.12;;
34102;SDS011;20381;54.498;18.206;2023-04-22T14:11:04;2.77;;;1.00;;
34102;SDS011;20381;54.498;18.206;2023-04-22T14:13:32;3.52;;;1.10;;
34102;SDS011;20381;54.498;18.206;2023-04-22T14:15:59;2.37;;;0.70;;
34102;SDS011;20381;54.498;18.206;2023-04-22T14:18:26;1.92;;;0.90;;
34102;SDS011;20381;54.498;18.206;2023-04-22T14:20:52;1.62;;;1.00;;
34102;SDS011;20381;54.498;18.206;2023-04-22T14:23:18;1.35;;;0.80;;
34102;SDS011;20381;54.498;18.206;2023-04-22T14:25:46;3.22;;;1.20;;
34102;SDS011;20381;54.498;18.206;2023-04-22T14:28:14;2.67;;;1.17;;
34102;SDS011;20381;54.498;18.206;2023-04-22T14:30:41;2.27;;;1.05;;
34102;SDS011;20381;54.498;18.206;2023-04-22T14:33:08;3.27;;;1.57;;
34102;SDS011;20381;54.498;18.206;2023-04-22T14:35:34;4.73;;;1.20;;
34102;SDS011;20381;54.498;18.206;2023-04-22T14:38:04;3.67;;;1.20;;
34102;SDS011;20381;54.498;18.206;2023-04-22T14:40:32;4.87;;;1.40;;
34102;SDS011;20381;54.498;18.206;2023-04-22T14:42:58;4.80;;;1.30;;
34102;SDS011;20381;54.498;18.206;2023-04-22T14:45:27;5.25;;;1.50;;
34102;SDS011;20381;54.498;18.206;2023-04-22T14:47:55;3.02;;;1.60;;
34102;SDS011;20381;54.498;18.206;2023-04-22T14:50:23;4.17;;;1.12;;
34102;SDS011;20381;54.498;18.206;2023-04-22T14:55:16;3.05;;;1.92;;
34102;SDS011;20381;54.498;18.206;2023-04-22T14:57:43;3.30;;;1.62;;
34102;SDS011;20381;54.498;18.206;2023-04-22T15:00:09;5.12;;;0.98;;